sensor_id;sensor_type;location;lat;lon;timestamp;temperature;humidity
40059;SHT31;25763;49.972;8.568;2022-09-19T00:01:20;8.61;85.11
40059;SHT31;25763;49.972;8.568;2022-09-19T00:03:52;8.64;85.28
40059;SHT31;25763;49.972;8.568;2022-09-19T00:06:17;8.67;85.48
40059;SHT31;25763;49.972;8.568;2022-09-19T00:08:44;8.68;85.50
40059;SHT31;25763;49.972;8.568;2022-09-19T00:11:11;8.73;85.39
40059;SHT31;25763;49.972;8.568;2022-09-19T00:13:39;8.74;85.33
40059;SHT31;25763;49.972;8.568;2022-09-19T00:16:06;8.78;85.33
40059;SHT31;25763;49.972;8.568;2022-09-19T00:18:32;8.80;85.40
40059;SHT31;25763;49.972;8.568;2022-09-19T00:20:57;8.81;85.39
40059;SHT31;25763;49.972;8.568;2022-09-19T00:23:26;8.87;85.43
40059;SHT31;25763;49.972;8.568;2022-09-19T00:26:11;8.88;85.43
40059;SHT31;25763;49.972;8.568;2022-09-19T00:28:37;8.92;85.40
40059;SHT31;25763;49.972;8.568;2022-09-19T00:31:04;8.94;85.33
40059;SHT31;25763;49.972;8.568;2022-09-19T00:33:31;8.97;85.49
40059;SHT31;25763;49.972;8.568;2022-09-19T00:35:58;8.97;85.40
40059;SHT31;25763;49.972;8.568;2022-09-19T00:38:26;8.99;85.44
40059;SHT31;25763;49.972;8.568;2022-09-19T00:40:52;8.94;85.41
40059;SHT31;25763;49.972;8.568;2022-09-19T00:43:23;8.97;85.49
40059;SHT31;25763;49.972;8.568;2022-09-19T00:45:51;8.98;85.56
40059;SHT31;25763;49.972;8.568;2022-09-19T00:48:19;8.98;85.54
40059;SHT31;25763;49.972;8.568;2022-09-19T00:50:50;9.01;85.52
40059;SHT31;25763;49.972;8.568;2022-09-19T00:53:20;9.04;85.50
40059;SHT31;25763;49.972;8.568;2022-09-19T00:55:48;9.08;85.51
40059;SHT31;25763;49.972;8.568;2022-09-19T00:58:33;9.09;85.33
40059;SHT31;25763;49.972;8.568;2022-09-19T01:01:00;9.12;85.28
40059;SHT31;25763;49.972;8.568;2022-09-19T01:03:27;9.15;85.25
40059;SHT31;25763;49.972;8.568;2022-09-19T01:06:27;9.12;85.32
40059;SHT31;25763;49.972;8.568;2022-09-19T01:09:21;9.15;85.43
40059;SHT31;25763;49.972;8.568;2022-09-19T01:17:35;9.19;85.40
40059;SHT31;25763;49.972;8.568;2022-09-19T01:25:23;9.20;85.30
40059;SHT31;25763;49.972;8.568;2022-09-19T01:28:24;9.26;85.40
40059;SHT31;25763;49.972;8.568;2022-09-19T01:31:00;9.22;85.45
40059;SHT31;25763;49.972;8.568;2022-09-19T01:36:27;9.30;85.68
40059;SHT31;25763;49.972;8.568;2022-09-19T01:38:56;9.32;85.56
40059;SHT31;25763;49.972;8.568;2022-09-19T01:41:22;9.34;85.64
40059;SHT31;25763;49.972;8.568;2022-09-19T01:43:49;9.30;85.49
40059;SHT31;25763;49.972;8.568;2022-09-19T01:51:50;9.32;85.52
40059;SHT31;25763;49.972;8.568;2022-09-19T01:54:47;9.34;85.57
40059;SHT31;25763;49.972;8.568;2022-09-19T02:05:14;9.40;85.67
40059;SHT31;25763;49.972;8.568;2022-09-19T02:08:02;9.41;85.67
40059;SHT31;25763;49.972;8.568;2022-09-19T02:13:06;9.44;85.72
40059;SHT31;25763;49.972;8.568;2022-09-19T02:15:35;9.41;85.66
40059;SHT31;25763;49.972;8.568;2022-09-19T02:18:07;9.43;85.70
40059;SHT31;25763;49.972;8.568;2022-09-19T02:20:37;9.48;85.82
40059;SHT31;25763;49.972;8.568;2022-09-19T02:23:17;9.51;85.94
40059;SHT31;25763;49.972;8.568;2022-09-19T02:25:45;9.50;85.72
40059;SHT31;25763;49.972;8.568;2022-09-19T02:28:17;9.52;85.66
40059;SHT31;25763;49.972;8.568;2022-09-19T02:30:47;9.52;85.66
40059;SHT31;25763;49.972;8.568;2022-09-19T02:33:13;9.55;85.66
40059;SHT31;25763;49.972;8.568;2022-09-19T02:35:49;9.55;85.61
40059;SHT31;25763;49.972;8.568;2022-09-19T02:38:29;9.65;85.58
40059;SHT31;25763;49.972;8.568;2022-09-19T02:41:07;9.68;85.49
40059;SHT31;25763;49.972;8.568;2022-09-19T02:43:45;9.71;85.39
40059;SHT31;25763;49.972;8.568;2022-09-19T02:46:40;9.69;85.25
40059;SHT31;25763;49.972;8.568;2022-09-19T02:49:18;9.75;85.19
40059;SHT31;25763;49.972;8.568;2022-09-19T02:51:55;9.75;85.15
40059;SHT31;25763;49.972;8.568;2022-09-19T02:54:26;9.77;85.08
40059;SHT31;25763;49.972;8.568;2022-09-19T02:56:53;9.82;84.99
40059;SHT31;25763;49.972;8.568;2022-09-19T02:59:27;9.85;85.02
40059;SHT31;25763;49.972;8.568;2022-09-19T03:02:04;9.82;84.95
40059;SHT31;25763;49.972;8.568;2022-09-19T03:04:35;9.86;84.96
40059;SHT31;25763;49.972;8.568;2022-09-19T03:07:11;9.89;84.95
40059;SHT31;25763;49.972;8.568;2022-09-19T03:09:48;9.89;84.96
40059;SHT31;25763;49.972;8.568;2022-09-19T03:12:23;9.85;85.06
40059;SHT31;25763;49.972;8.568;2022-09-19T03:14:50;9.89;85.23
40059;SHT31;25763;49.972;8.568;2022-09-19T03:17:24;9.88;85.21
40059;SHT31;25763;49.972;8.568;2022-09-19T03:19:52;9.83;85.18
40059;SHT31;25763;49.972;8.568;2022-09-19T03:22:18;9.86;85.17
40059;SHT31;25763;49.972;8.568;2022-09-19T03:24:43;9.85;85.06
40059;SHT31;25763;49.972;8.568;2022-09-19T03:27:08;9.88;85.15
40059;SHT31;25763;49.972;8.568;2022-09-19T03:29:35;9.92;85.22
40059;SHT31;25763;49.972;8.568;2022-09-19T03:32:01;9.95;85.14
40059;SHT31;25763;49.972;8.568;2022-09-19T03:34:26;9.93;84.96
40059;SHT31;25763;49.972;8.568;2022-09-19T03:36:52;9.96;84.97
40059;SHT31;25763;49.972;8.568;2022-09-19T03:39:17;10.00;84.94
40059;SHT31;25763;49.972;8.568;2022-09-19T03:41:43;10.02;84.84
40059;SHT31;25763;49.972;8.568;2022-09-19T03:44:08;10.03;84.76
40059;SHT31;25763;49.972;8.568;2022-09-19T03:46:34;10.06;84.71
40059;SHT31;25763;49.972;8.568;2022-09-19T03:49:01;10.06;84.64
40059;SHT31;25763;49.972;8.568;2022-09-19T03:51:29;10.09;84.56
40059;SHT31;25763;49.972;8.568;2022-09-19T03:53:56;10.12;84.53
40059;SHT31;25763;49.972;8.568;2022-09-19T03:56:21;10.16;84.47
40059;SHT31;25763;49.972;8.568;2022-09-19T03:58:47;10.17;84.48
40059;SHT31;25763;49.972;8.568;2022-09-19T04:01:12;10.21;84.46
40059;SHT31;25763;49.972;8.568;2022-09-19T04:03:41;10.18;84.37
40059;SHT31;25763;49.972;8.568;2022-09-19T04:06:07;10.21;84.39
40059;SHT31;25763;49.972;8.568;2022-09-19T04:08:32;10.23;84.39
40059;SHT31;25763;49.972;8.568;2022-09-19T04:10:58;10.24;84.61
40059;SHT31;25763;49.972;8.568;2022-09-19T04:13:24;10.27;84.75
40059;SHT31;25763;49.972;8.568;2022-09-19T04:15:50;10.31;84.75
40059;SHT31;25763;49.972;8.568;2022-09-19T04:18:17;10.33;84.85
40059;SHT31;25763;49.972;8.568;2022-09-19T04:20:45;10.30;84.81
40059;SHT31;25763;49.972;8.568;2022-09-19T04:23:10;10.31;84.89
40059;SHT31;25763;49.972;8.568;2022-09-19T04:25:37;10.28;84.94
40059;SHT31;25763;49.972;8.568;2022-09-19T04:28:08;10.28;85.06
40059;SHT31;25763;49.972;8.568;2022-09-19T04:30:35;10.30;85.15
40059;SHT31;25763;49.972;8.568;2022-09-19T04:33:03;10.30;85.13
40059;SHT31;25763;49.972;8.568;2022-09-19T04:35:32;10.30;85.26
40059;SHT31;25763;49.972;8.568;2022-09-19T04:38:09;10.30;85.07
40059;SHT31;25763;49.972;8.568;2022-09-19T04:40:40;10.28;85.10
40059;SHT31;25763;49.972;8.568;2022-09-19T04:43:07;10.30;85.06
40059;SHT31;25763;49.972;8.568;2022-09-19T04:45:34;10.31;85.08
40059;SHT31;25763;49.972;8.568;2022-09-19T04:48:00;10.24;84.97
40059;SHT31;25763;49.972;8.568;2022-09-19T04:50:28;10.27;85.00
40059;SHT31;25763;49.972;8.568;2022-09-19T04:52:53;10.27;84.99
40059;SHT31;25763;49.972;8.568;2022-09-19T04:55:18;10.28;84.93
40059;SHT31;25763;49.972;8.568;2022-09-19T04:57:43;10.27;84.82
40059;SHT31;25763;49.972;8.568;2022-09-19T05:00:10;10.30;84.79
40059;SHT31;25763;49.972;8.568;2022-09-19T05:02:36;10.33;84.95
40059;SHT31;25763;49.972;8.568;2022-09-19T05:05:03;10.37;84.97
40059;SHT31;25763;49.972;8.568;2022-09-19T05:07:29;10.40;84.96
40059;SHT31;25763;49.972;8.568;2022-09-19T05:10:00;10.41;84.92
40059;SHT31;25763;49.972;8.568;2022-09-19T05:12:27;10.45;85.04
40059;SHT31;25763;49.972;8.568;2022-09-19T05:14:55;10.46;84.91
40059;SHT31;25763;49.972;8.568;2022-09-19T05:17:21;10.45;84.82
40059;SHT31;25763;49.972;8.568;2022-09-19T05:19:46;10.49;84.79
40059;SHT31;25763;49.972;8.568;2022-09-19T05:22:12;10.55;84.82
40059;SHT31;25763;49.972;8.568;2022-09-19T05:24:37;10.58;84.87
40059;SHT31;25763;49.972;8.568;2022-09-19T05:27:03;10.57;84.77
40059;SHT31;25763;49.972;8.568;2022-09-19T05:29:29;10.54;84.70
40059;SHT31;25763;49.972;8.568;2022-09-19T05:31:57;10.52;84.69
40059;SHT31;25763;49.972;8.568;2022-09-19T05:34:27;10.54;84.71
40059;SHT31;25763;49.972;8.568;2022-09-19T05:36:52;10.54;84.70
40059;SHT31;25763;49.972;8.568;2022-09-19T05:39:18;10.54;84.69
40059;SHT31;25763;49.972;8.568;2022-09-19T05:41:43;10.51;84.65
40059;SHT31;25763;49.972;8.568;2022-09-19T05:44:08;10.52;84.70
40059;SHT31;25763;49.972;8.568;2022-09-19T05:46:34;10.57;84.79
40059;SHT31;25763;49.972;8.568;2022-09-19T05:48:59;10.58;84.77
40059;SHT31;25763;49.972;8.568;2022-09-19T05:51:24;10.61;84.80
40059;SHT31;25763;49.972;8.568;2022-09-19T05:53:50;10.58;84.82
40059;SHT31;25763;49.972;8.568;2022-09-19T05:56:18;10.62;84.82
40059;SHT31;25763;49.972;8.568;2022-09-19T05:58:44;10.58;84.87
40059;SHT31;25763;49.972;8.568;2022-09-19T06:01:11;10.61;84.95
40059;SHT31;25763;49.972;8.568;2022-09-19T06:03:37;10.61;84.90
40059;SHT31;25763;49.972;8.568;2022-09-19T06:06:08;10.65;84.99
40059;SHT31;25763;49.972;8.568;2022-09-19T06:08:36;10.64;85.05
40059;SHT31;25763;49.972;8.568;2022-09-19T06:11:02;10.69;85.11
40059;SHT31;25763;49.972;8.568;2022-09-19T06:13:27;10.69;84.93
40059;SHT31;25763;49.972;8.568;2022-09-19T06:16:12;10.82;85.00
40059;SHT31;25763;49.972;8.568;2022-09-19T06:18:38;10.87;84.77
40059;SHT31;25763;49.972;8.568;2022-09-19T06:21:03;10.94;84.62
40059;SHT31;25763;49.972;8.568;2022-09-19T06:23:29;10.99;84.64
40059;SHT31;25763;49.972;8.568;2022-09-19T06:25:54;11.00;84.51
40059;SHT31;25763;49.972;8.568;2022-09-19T06:28:19;10.97;84.26
40059;SHT31;25763;49.972;8.568;2022-09-19T06:30:45;11.03;84.39
40059;SHT31;25763;49.972;8.568;2022-09-19T06:33:10;11.01;84.15
40059;SHT31;25763;49.972;8.568;2022-09-19T06:35:35;11.11;84.45
40059;SHT31;25763;49.972;8.568;2022-09-19T06:38:03;11.12;84.22
40059;SHT31;25763;49.972;8.568;2022-09-19T06:40:29;11.15;84.18
40059;SHT31;25763;49.972;8.568;2022-09-19T06:42:59;11.22;84.20
40059;SHT31;25763;49.972;8.568;2022-09-19T06:45:31;11.34;83.98
40059;SHT31;25763;49.972;8.568;2022-09-19T06:48:00;11.44;83.88
40059;SHT31;25763;49.972;8.568;2022-09-19T06:50:27;11.53;83.69
40059;SHT31;25763;49.972;8.568;2022-09-19T06:52:53;11.59;83.48
40059;SHT31;25763;49.972;8.568;2022-09-19T06:55:18;11.65;83.27
40059;SHT31;25763;49.972;8.568;2022-09-19T06:57:58;11.70;83.16
40059;SHT31;25763;49.972;8.568;2022-09-19T07:00:26;11.66;82.51
40059;SHT31;25763;49.972;8.568;2022-09-19T07:02:52;11.71;82.72
40059;SHT31;25763;49.972;8.568;2022-09-19T07:05:19;11.67;82.39
40059;SHT31;25763;49.972;8.568;2022-09-19T07:07:45;11.74;82.21
40059;SHT31;25763;49.972;8.568;2022-09-19T07:10:10;11.70;82.12
40059;SHT31;25763;49.972;8.568;2022-09-19T07:12:36;11.69;82.22
40059;SHT31;25763;49.972;8.568;2022-09-19T07:15:01;11.70;81.98
40059;SHT31;25763;49.972;8.568;2022-09-19T07:17:26;11.70;82.05
40059;SHT31;25763;49.972;8.568;2022-09-19T07:19:52;11.74;82.20
40059;SHT31;25763;49.972;8.568;2022-09-19T07:22:19;11.69;81.90
40059;SHT31;25763;49.972;8.568;2022-09-19T07:24:46;11.71;82.04
40059;SHT31;25763;49.972;8.568;2022-09-19T07:27:11;11.80;81.94
40059;SHT31;25763;49.972;8.568;2022-09-19T07:29:36;11.99;82.22
40059;SHT31;25763;49.972;8.568;2022-09-19T07:32:02;12.12;81.90
40059;SHT31;25763;49.972;8.568;2022-09-19T07:34:27;12.08;81.17
40059;SHT31;25763;49.972;8.568;2022-09-19T07:36:53;12.22;81.25
40059;SHT31;25763;49.972;8.568;2022-09-19T07:39:18;12.22;81.00
40059;SHT31;25763;49.972;8.568;2022-09-19T07:41:44;12.32;81.01
40059;SHT31;25763;49.972;8.568;2022-09-19T07:44:11;12.36;80.35
40059;SHT31;25763;49.972;8.568;2022-09-19T07:46:36;12.42;80.33
40059;SHT31;25763;49.972;8.568;2022-09-19T07:49:02;12.52;80.92
40059;SHT31;25763;49.972;8.568;2022-09-19T07:51:27;12.40;80.14
40059;SHT31;25763;49.972;8.568;2022-09-19T07:53:54;12.42;80.83
40059;SHT31;25763;49.972;8.568;2022-09-19T07:56:21;12.45;80.84
40059;SHT31;25763;49.972;8.568;2022-09-19T07:58:46;12.57;80.27
40059;SHT31;25763;49.972;8.568;2022-09-19T08:01:12;12.55;79.63
40059;SHT31;25763;49.972;8.568;2022-09-19T08:03:37;12.60;80.05
40059;SHT31;25763;49.972;8.568;2022-09-19T08:06:03;12.57;79.87
40059;SHT31;25763;49.972;8.568;2022-09-19T08:08:28;12.53;79.77
40059;SHT31;25763;49.972;8.568;2022-09-19T08:10:57;12.55;79.90
40059;SHT31;25763;49.972;8.568;2022-09-19T08:13:25;12.55;79.93
40059;SHT31;25763;49.972;8.568;2022-09-19T08:15:50;12.56;80.00
40059;SHT31;25763;49.972;8.568;2022-09-19T08:18:18;12.50;80.07
40059;SHT31;25763;49.972;8.568;2022-09-19T08:20:44;12.40;79.98
40059;SHT31;25763;49.972;8.568;2022-09-19T08:23:12;12.50;80.64
40059;SHT31;25763;49.972;8.568;2022-09-19T08:25:40;12.43;80.56
40059;SHT31;25763;49.972;8.568;2022-09-19T08:28:09;12.45;80.26
40059;SHT31;25763;49.972;8.568;2022-09-19T08:30:34;12.50;80.78
40059;SHT31;25763;49.972;8.568;2022-09-19T08:33:01;12.59;80.79
40059;SHT31;25763;49.972;8.568;2022-09-19T08:35:29;12.64;80.98
40059;SHT31;25763;49.972;8.568;2022-09-19T08:37:59;12.73;80.83
40059;SHT31;25763;49.972;8.568;2022-09-19T08:40:50;12.82;80.68
40059;SHT31;25763;49.972;8.568;2022-09-19T08:43:33;12.81;80.27
40059;SHT31;25763;49.972;8.568;2022-09-19T08:46:13;12.95;80.31
40059;SHT31;25763;49.972;8.568;2022-09-19T08:51:16;12.97;79.41
40059;SHT31;25763;49.972;8.568;2022-09-19T08:53:45;12.95;79.68
40059;SHT31;25763;49.972;8.568;2022-09-19T08:56:12;12.97;78.85
40059;SHT31;25763;49.972;8.568;2022-09-19T08:58:52;12.98;78.87
40059;SHT31;25763;49.972;8.568;2022-09-19T09:01:19;12.88;78.50
40059;SHT31;25763;49.972;8.568;2022-09-19T09:06:36;13.02;78.82
40059;SHT31;25763;49.972;8.568;2022-09-19T09:22:29;13.75;77.57
40059;SHT31;25763;49.972;8.568;2022-09-19T09:25:12;13.86;76.95
40059;SHT31;25763;49.972;8.568;2022-09-19T09:28:11;14.00;75.92
40059;SHT31;25763;49.972;8.568;2022-09-19T09:30:42;14.10;76.45
40059;SHT31;25763;49.972;8.568;2022-09-19T09:33:24;14.12;75.76
40059;SHT31;25763;49.972;8.568;2022-09-19T09:35:58;14.02;74.65
40059;SHT31;25763;49.972;8.568;2022-09-19T09:38:39;14.08;75.86
40059;SHT31;25763;49.972;8.568;2022-09-19T09:41:20;14.24;76.30
40059;SHT31;25763;49.972;8.568;2022-09-19T09:49:16;14.33;75.14
40059;SHT31;25763;49.972;8.568;2022-09-19T09:55:18;14.42;75.54
40059;SHT31;25763;49.972;8.568;2022-09-19T09:58:53;14.50;74.45
40059;SHT31;25763;49.972;8.568;2022-09-19T10:04:44;14.52;72.98
40059;SHT31;25763;49.972;8.568;2022-09-19T10:10:07;14.94;74.13
40059;SHT31;25763;49.972;8.568;2022-09-19T10:12:44;15.10;73.55
40059;SHT31;25763;49.972;8.568;2022-09-19T10:15:19;15.51;74.10
40059;SHT31;25763;49.972;8.568;2022-09-19T10:17:48;15.42;71.71
40059;SHT31;25763;49.972;8.568;2022-09-19T10:20:22;15.18;71.10
40059;SHT31;25763;49.972;8.568;2022-09-19T10:22:50;15.31;72.64
40059;SHT31;25763;49.972;8.568;2022-09-19T10:25:19;15.48;71.51
40059;SHT31;25763;49.972;8.568;2022-09-19T10:27:46;15.48;71.91
40059;SHT31;25763;49.972;8.568;2022-09-19T10:32:51;15.28;69.34
40059;SHT31;25763;49.972;8.568;2022-09-19T10:35:36;15.53;69.60
40059;SHT31;25763;49.972;8.568;2022-09-19T10:38:08;15.62;68.62
40059;SHT31;25763;49.972;8.568;2022-09-19T10:43:21;15.97;68.42
40059;SHT31;25763;49.972;8.568;2022-09-19T10:45:48;16.05;67.44
40059;SHT31;25763;49.972;8.568;2022-09-19T10:48:30;16.15;67.19
40059;SHT31;25763;49.972;8.568;2022-09-19T10:50:57;16.11;67.19
40059;SHT31;25763;49.972;8.568;2022-09-19T10:53:29;16.08;67.53
40059;SHT31;25763;49.972;8.568;2022-09-19T10:55:59;16.03;66.92
40059;SHT31;25763;49.972;8.568;2022-09-19T10:58:26;15.90;67.77
40059;SHT31;25763;49.972;8.568;2022-09-19T11:01:01;16.11;68.21
40059;SHT31;25763;49.972;8.568;2022-09-19T11:03:30;16.28;65.87
40059;SHT31;25763;49.972;8.568;2022-09-19T11:06:06;16.36;66.59
40059;SHT31;25763;49.972;8.568;2022-09-19T11:08:38;16.39;66.96
40059;SHT31;25763;49.972;8.568;2022-09-19T11:12:02;16.64;67.49
40059;SHT31;25763;49.972;8.568;2022-09-19T11:14:20;16.87;65.23
40059;SHT31;25763;49.972;8.568;2022-09-19T11:30:27;17.26;61.96
40059;SHT31;25763;49.972;8.568;2022-09-19T11:33:18;17.06;61.30
40059;SHT31;25763;49.972;8.568;2022-09-19T11:35:50;17.16;61.69
40059;SHT31;25763;49.972;8.568;2022-09-19T11:38:37;17.23;62.03
40059;SHT31;25763;49.972;8.568;2022-09-19T11:49:39;17.49;60.64
40059;SHT31;25763;49.972;8.568;2022-09-19T11:58:05;17.75;59.80
40059;SHT31;25763;49.972;8.568;2022-09-19T12:01:00;17.91;59.71
40059;SHT31;25763;49.972;8.568;2022-09-19T12:03:59;18.09;60.65
40059;SHT31;25763;49.972;8.568;2022-09-19T12:06:50;18.14;60.62
40059;SHT31;25763;49.972;8.568;2022-09-19T12:09:24;17.99;58.74
40059;SHT31;25763;49.972;8.568;2022-09-19T12:12:14;18.02;60.11
40059;SHT31;25763;49.972;8.568;2022-09-19T12:14:44;18.03;58.53
40059;SHT31;25763;49.972;8.568;2022-09-19T12:17:27;18.27;60.30
40059;SHT31;25763;49.972;8.568;2022-09-19T12:20:15;18.24;59.11
40059;SHT31;25763;49.972;8.568;2022-09-19T12:22:51;17.93;59.26
40059;SHT31;25763;49.972;8.568;2022-09-19T12:25:23;17.63;59.81
40059;SHT31;25763;49.972;8.568;2022-09-19T12:27:58;17.84;59.48
40059;SHT31;25763;49.972;8.568;2022-09-19T12:30:30;17.61;59.47
40059;SHT31;25763;49.972;8.568;2022-09-19T12:33:01;17.25;60.70
40059;SHT31;25763;49.972;8.568;2022-09-19T12:35:36;16.92;60.40
40059;SHT31;25763;49.972;8.568;2022-09-19T12:38:22;16.84;61.56
40059;SHT31;25763;49.972;8.568;2022-09-19T12:40:57;17.41;61.06
40059;SHT31;25763;49.972;8.568;2022-09-19T12:43:41;17.50;58.20
40059;SHT31;25763;49.972;8.568;2022-09-19T12:46:40;17.85;59.17
40059;SHT31;25763;49.972;8.568;2022-09-19T12:49:20;18.20;57.77
40059;SHT31;25763;49.972;8.568;2022-09-19T12:54:39;18.27;55.63
40059;SHT31;25763;49.972;8.568;2022-09-19T12:57:25;18.23;54.24
40059;SHT31;25763;49.972;8.568;2022-09-19T12:59:53;18.40;55.33
40059;SHT31;25763;49.972;8.568;2022-09-19T13:15:53;18.43;54.07
40059;SHT31;25763;49.972;8.568;2022-09-19T13:18:21;18.20;54.90
40059;SHT31;25763;49.972;8.568;2022-09-19T13:21:14;18.16;54.85
40059;SHT31;25763;49.972;8.568;2022-09-19T13:23:59;18.20;54.97
40059;SHT31;25763;49.972;8.568;2022-09-19T13:26:28;18.13;55.31
40059;SHT31;25763;49.972;8.568;2022-09-19T13:29:41;17.85;58.36
40059;SHT31;25763;49.972;8.568;2022-09-19T13:32:03;17.64;58.83
40059;SHT31;25763;49.972;8.568;2022-09-19T13:36:58;17.73;57.24
40059;SHT31;25763;49.972;8.568;2022-09-19T13:39:53;17.86;57.31
40059;SHT31;25763;49.972;8.568;2022-09-19T13:42:51;17.65;56.05
40059;SHT31;25763;49.972;8.568;2022-09-19T13:48:00;18.12;56.23
40059;SHT31;25763;49.972;8.568;2022-09-19T13:53:22;18.27;54.52
40059;SHT31;25763;49.972;8.568;2022-09-19T13:56:00;18.47;54.79
40059;SHT31;25763;49.972;8.568;2022-09-19T13:58:32;18.26;54.69
40059;SHT31;25763;49.972;8.568;2022-09-19T14:03:41;17.85;55.22
40059;SHT31;25763;49.972;8.568;2022-09-19T14:06:26;17.86;56.34
40059;SHT31;25763;49.972;8.568;2022-09-19T14:11:46;17.55;58.23
40059;SHT31;25763;49.972;8.568;2022-09-19T14:17:31;17.39;57.74
40059;SHT31;25763;49.972;8.568;2022-09-19T14:19:59;17.39;59.35
40059;SHT31;25763;49.972;8.568;2022-09-19T14:25:18;17.54;59.91
40059;SHT31;25763;49.972;8.568;2022-09-19T14:35:43;17.30;62.03
40059;SHT31;25763;49.972;8.568;2022-09-19T14:41:01;17.09;62.43
40059;SHT31;25763;49.972;8.568;2022-09-19T14:44:08;17.01;63.12
40059;SHT31;25763;49.972;8.568;2022-09-19T14:46:47;17.06;63.69
40059;SHT31;25763;49.972;8.568;2022-09-19T14:49:27;17.12;63.37
40059;SHT31;25763;49.972;8.568;2022-09-19T14:51:59;17.20;64.41
40059;SHT31;25763;49.972;8.568;2022-09-19T14:54:41;17.20;63.86
40059;SHT31;25763;49.972;8.568;2022-09-19T14:57:26;17.41;63.91
40059;SHT31;25763;49.972;8.568;2022-09-19T14:59:52;17.46;60.78
40059;SHT31;25763;49.972;8.568;2022-09-19T15:02:32;17.25;59.10
40059;SHT31;25763;49.972;8.568;2022-09-19T15:05:00;17.12;60.76
40059;SHT31;25763;49.972;8.568;2022-09-19T15:07:31;16.73;64.83
40059;SHT31;25763;49.972;8.568;2022-09-19T15:09:57;16.35;67.30
40059;SHT31;25763;49.972;8.568;2022-09-19T15:12:31;15.86;70.85
40059;SHT31;25763;49.972;8.568;2022-09-19T15:14:59;15.86;70.65
40059;SHT31;25763;49.972;8.568;2022-09-19T15:17:32;15.71;70.32
40059;SHT31;25763;49.972;8.568;2022-09-19T15:20:08;15.62;70.24
40059;SHT31;25763;49.972;8.568;2022-09-19T15:22:55;15.44;71.87
40059;SHT31;25763;49.972;8.568;2022-09-19T15:25:27;15.26;71.95
40059;SHT31;25763;49.972;8.568;2022-09-19T15:27:56;15.17;73.21
40059;SHT31;25763;49.972;8.568;2022-09-19T15:30:28;15.10;74.36
40059;SHT31;25763;49.972;8.568;2022-09-19T15:33:03;15.12;74.37
40059;SHT31;25763;49.972;8.568;2022-09-19T15:35:32;15.30;74.78
40059;SHT31;25763;49.972;8.568;2022-09-19T15:38:00;15.24;75.38
40059;SHT31;25763;49.972;8.568;2022-09-19T15:40:28;15.24;74.40
40059;SHT31;25763;49.972;8.568;2022-09-19T15:42:54;15.34;74.56
40059;SHT31;25763;49.972;8.568;2022-09-19T15:47:56;15.31;75.47
40059;SHT31;25763;49.972;8.568;2022-09-19T15:50:24;15.30;76.15
40059;SHT31;25763;49.972;8.568;2022-09-19T15:52:51;15.20;75.58
40059;SHT31;25763;49.972;8.568;2022-09-19T15:55:22;15.10;75.44
40059;SHT31;25763;49.972;8.568;2022-09-19T15:57:55;15.14;76.29
40059;SHT31;25763;49.972;8.568;2022-09-19T16:00:23;15.15;76.45
40059;SHT31;25763;49.972;8.568;2022-09-19T16:02:58;15.20;76.05
40059;SHT31;25763;49.972;8.568;2022-09-19T16:05:31;15.27;75.94
40059;SHT31;25763;49.972;8.568;2022-09-19T16:07:58;15.31;75.84
40059;SHT31;25763;49.972;8.568;2022-09-19T16:10:46;15.38;76.45
40059;SHT31;25763;49.972;8.568;2022-09-19T16:13:37;15.21;75.78
40059;SHT31;25763;49.972;8.568;2022-09-19T16:16:24;15.10;73.70
40059;SHT31;25763;49.972;8.568;2022-09-19T16:18:54;14.96;72.84
40059;SHT31;25763;49.972;8.568;2022-09-19T16:21:38;14.86;73.67
40059;SHT31;25763;49.972;8.568;2022-09-19T16:24:17;14.86;74.41
40059;SHT31;25763;49.972;8.568;2022-09-19T16:26:43;14.79;74.97
40059;SHT31;25763;49.972;8.568;2022-09-19T16:29:11;14.71;74.64
40059;SHT31;25763;49.972;8.568;2022-09-19T16:31:38;14.50;70.18
40059;SHT31;25763;49.972;8.568;2022-09-19T16:34:27;14.35;70.95
40059;SHT31;25763;49.972;8.568;2022-09-19T16:36:55;14.30;71.33
40059;SHT31;25763;49.972;8.568;2022-09-19T16:44:48;14.12;73.19
40059;SHT31;25763;49.972;8.568;2022-09-19T16:49:42;14.16;74.14
40059;SHT31;25763;49.972;8.568;2022-09-19T16:52:15;14.05;74.48
40059;SHT31;25763;49.972;8.568;2022-09-19T16:54:41;14.05;74.68
40059;SHT31;25763;49.972;8.568;2022-09-19T16:57:10;14.00;74.95
40059;SHT31;25763;49.972;8.568;2022-09-19T16:59:37;14.00;75.14
40059;SHT31;25763;49.972;8.568;2022-09-19T17:02:03;14.02;75.54
40059;SHT31;25763;49.972;8.568;2022-09-19T17:04:28;13.98;75.05
40059;SHT31;25763;49.972;8.568;2022-09-19T17:06:53;14.09;75.10
40059;SHT31;25763;49.972;8.568;2022-09-19T17:09:19;14.03;74.98
40059;SHT31;25763;49.972;8.568;2022-09-19T17:11:46;14.03;74.73
40059;SHT31;25763;49.972;8.568;2022-09-19T17:14:19;13.91;74.19
40059;SHT31;25763;49.972;8.568;2022-09-19T17:16:45;13.85;74.68
40059;SHT31;25763;49.972;8.568;2022-09-19T17:19:12;13.82;74.32
40059;SHT31;25763;49.972;8.568;2022-09-19T17:21:37;13.78;73.41
40059;SHT31;25763;49.972;8.568;2022-09-19T17:24:03;13.77;73.67
40059;SHT31;25763;49.972;8.568;2022-09-19T17:26:30;13.78;73.72
40059;SHT31;25763;49.972;8.568;2022-09-19T17:28:56;13.70;73.66
40059;SHT31;25763;49.972;8.568;2022-09-19T17:31:22;13.71;73.71
40059;SHT31;25763;49.972;8.568;2022-09-19T17:33:49;13.73;73.91
40059;SHT31;25763;49.972;8.568;2022-09-19T17:36:15;13.73;74.52
40059;SHT31;25763;49.972;8.568;2022-09-19T17:38:42;13.59;74.08
40059;SHT31;25763;49.972;8.568;2022-09-19T17:41:09;13.55;74.28
40059;SHT31;25763;49.972;8.568;2022-09-19T17:43:34;13.62;74.92
40059;SHT31;25763;49.972;8.568;2022-09-19T17:46:00;13.48;73.73
40059;SHT31;25763;49.972;8.568;2022-09-19T17:48:28;13.51;74.13
40059;SHT31;25763;49.972;8.568;2022-09-19T17:50:55;13.55;74.57
40059;SHT31;25763;49.972;8.568;2022-09-19T17:53:21;13.64;75.47
40059;SHT31;25763;49.972;8.568;2022-09-19T17:55:47;13.64;75.99
40059;SHT31;25763;49.972;8.568;2022-09-19T17:58:13;13.59;75.50
40059;SHT31;25763;49.972;8.568;2022-09-19T18:00:39;13.54;75.38
40059;SHT31;25763;49.972;8.568;2022-09-19T18:03:05;13.51;75.23
40059;SHT31;25763;49.972;8.568;2022-09-19T18:05:54;13.53;75.68
40059;SHT31;25763;49.972;8.568;2022-09-19T18:08:19;13.54;75.52
40059;SHT31;25763;49.972;8.568;2022-09-19T18:10:44;13.53;76.10
40059;SHT31;25763;49.972;8.568;2022-09-19T18:13:10;13.50;75.87
40059;SHT31;25763;49.972;8.568;2022-09-19T18:15:37;13.48;76.15
40059;SHT31;25763;49.972;8.568;2022-09-19T18:18:03;13.43;75.34
40059;SHT31;25763;49.972;8.568;2022-09-19T18:20:30;13.46;75.97
40059;SHT31;25763;49.972;8.568;2022-09-19T18:22:56;13.40;74.90
40059;SHT31;25763;49.972;8.568;2022-09-19T18:25:23;13.37;74.89
40059;SHT31;25763;49.972;8.568;2022-09-19T18:27:51;13.32;74.78
40059;SHT31;25763;49.972;8.568;2022-09-19T18:30:16;13.33;75.06
40059;SHT31;25763;49.972;8.568;2022-09-19T18:32:43;13.36;75.92
40059;SHT31;25763;49.972;8.568;2022-09-19T18:35:10;13.36;75.96